sensor_id;sensor_type;location;lat;lon;timestamp;temperature;humidity
33580;DHT22;19909;43.644;-79.438;2023-11-19T00:01:24;23.60;34.80
33580;DHT22;19909;43.644;-79.438;2023-11-19T00:03:50;23.60;34.90
33580;DHT22;19909;43.644;-79.438;2023-11-19T00:06:16;23.60;35.00
33580;DHT22;19909;43.644;-79.438;2023-11-19T00:08:42;23.50;34.60
33580;DHT22;19909;43.644;-79.438;2023-11-19T00:11:12;23.50;34.40
33580;DHT22;19909;43.644;-79.438;2023-11-19T00:13:41;23.50;34.30
33580;DHT22;19909;43.644;-79.438;2023-11-19T00:16:08;23.70;34.30
33580;DHT22;19909;43.644;-79.438;2023-11-19T00:18:36;23.80;34.10
33580;DHT22;19909;43.644;-79.438;2023-11-19T00:21:02;23.90;34.00
33580;DHT22;19909;43.644;-79.438;2023-11-19T00:23:28;24.00;33.90
33580;DHT22;19909;43.644;-79.438;2023-11-19T00:25:55;24.20;34.10
33580;DHT22;19909;43.644;-79.438;2023-11-19T00:28:21;24.30;34.30
33580;DHT22;19909;43.644;-79.438;2023-11-19T00:30:47;24.30;34.20
33580;DHT22;19909;43.644;-79.438;2023-11-19T00:33:14;24.30;34.10
33580;DHT22;19909;43.644;-79.438;2023-11-19T00:35:40;24.20;34.10
33580;DHT22;19909;43.644;-79.438;2023-11-19T00:38:06;24.20;34.10
33580;DHT22;19909;43.644;-79.438;2023-11-19T00:40:32;24.10;34.20
33580;DHT22;19909;43.644;-79.438;2023-11-19T00:42:58;24.00;34.20
33580;DHT22;19909;43.644;-79.438;2023-11-19T00:45:24;24.00;34.40
33580;DHT22;19909;43.644;-79.438;2023-11-19T00:47:51;23.90;35.00
33580;DHT22;19909;43.644;-79.438;2023-11-19T00:50:17;23.90;34.50
33580;DHT22;19909;43.644;-79.438;2023-11-19T00:52:43;23.80;34.60
33580;DHT22;19909;43.644;-79.438;2023-11-19T00:55:09;23.80;34.60
33580;DHT22;19909;43.644;-79.438;2023-11-19T00:57:37;23.80;34.70
33580;DHT22;19909;43.644;-79.438;2023-11-19T01:00:04;23.70;34.80
33580;DHT22;19909;43.644;-79.438;2023-11-19T01:02:39;23.70;34.90
33580;DHT22;19909;43.644;-79.438;2023-11-19T01:05:07;23.60;34.80
33580;DHT22;19909;43.644;-79.438;2023-11-19T01:07:34;23.60;34.70
33580;DHT22;19909;43.644;-79.438;2023-11-19T01:10:00;23.50;34.50
33580;DHT22;19909;43.644;-79.438;2023-11-19T01:12:27;23.60;34.40
33580;DHT22;19909;43.644;-79.438;2023-11-19T01:14:53;23.60;34.30
33580;DHT22;19909;43.644;-79.438;2023-11-19T01:17:19;23.70;34.20
33580;DHT22;19909;43.644;-79.438;2023-11-19T01:19:45;23.80;34.10
33580;DHT22;19909;43.644;-79.438;2023-11-19T01:22:12;24.00;34.30
33580;DHT22;19909;43.644;-79.438;2023-11-19T01:24:38;24.00;34.50
33580;DHT22;19909;43.644;-79.438;2023-11-19T01:27:04;24.00;34.40
33580;DHT22;19909;43.644;-79.438;2023-11-19T01:29:30;24.00;34.30
33580;DHT22;19909;43.644;-79.438;2023-11-19T01:31:57;24.00;34.30
33580;DHT22;19909;43.644;-79.438;2023-11-19T01:34:23;23.90;34.40
33580;DHT22;19909;43.644;-79.438;2023-11-19T01:36:49;23.80;34.60
33580;DHT22;19909;43.644;-79.438;2023-11-19T01:39:16;23.80;34.60
33580;DHT22;19909;43.644;-79.438;2023-11-19T01:41:42;23.80;34.60
33580;DHT22;19909;43.644;-79.438;2023-11-19T01:44:08;23.70;34.60
33580;DHT22;19909;43.644;-79.438;2023-11-19T01:46:35;23.70;34.80
33580;DHT22;19909;43.644;-79.438;2023-11-19T01:49:02;23.60;34.80
33580;DHT22;19909;43.644;-79.438;2023-11-19T01:51:29;23.60;34.80
33580;DHT22;19909;43.644;-79.438;2023-11-19T01:53:57;23.60;34.90
33580;DHT22;19909;43.644;-79.438;2023-11-19T01:56:24;23.50;34.90
33580;DHT22;19909;43.644;-79.438;2023-11-19T01:58:53;23.50;35.00
33580;DHT22;19909;43.644;-79.438;2023-11-19T02:01:19;23.40;35.00
33580;DHT22;19909;43.644;-79.438;2023-11-19T02:03:46;23.40;35.00
33580;DHT22;19909;43.644;-79.438;2023-11-19T02:06:13;23.40;35.10
33580;DHT22;19909;43.644;-79.438;2023-11-19T02:08:39;23.40;35.10
33580;DHT22;19909;43.644;-79.438;2023-11-19T02:11:05;23.40;34.80
33580;DHT22;19909;43.644;-79.438;2023-11-19T02:13:36;23.40;34.80
33580;DHT22;19909;43.644;-79.438;2023-11-19T02:16:03;23.50;34.70
33580;DHT22;19909;43.644;-79.438;2023-11-19T02:18:30;23.60;34.50
33580;DHT22;19909;43.644;-79.438;2023-11-19T02:20:57;23.80;34.30
33580;DHT22;19909;43.644;-79.438;2023-11-19T02:23:25;24.00;34.30
33580;DHT22;19909;43.644;-79.438;2023-11-19T02:26:32;24.10;34.20
33580;DHT22;19909;43.644;-79.438;2023-11-19T02:28:59;24.20;34.30
33580;DHT22;19909;43.644;-79.438;2023-11-19T02:31:26;24.20;34.20
33580;DHT22;19909;43.644;-79.438;2023-11-19T02:33:53;24.20;34.30
33580;DHT22;19909;43.644;-79.438;2023-11-19T02:36:20;24.20;34.20
33580;DHT22;19909;43.644;-79.438;2023-11-19T02:38:47;24.10;34.20
33580;DHT22;19909;43.644;-79.438;2023-11-19T02:41:14;24.00;34.20
33580;DHT22;19909;43.644;-79.438;2023-11-19T02:43:40;24.00;34.30
33580;DHT22;19909;43.644;-79.438;2023-11-19T02:46:06;23.90;34.40
33580;DHT22;19909;43.644;-79.438;2023-11-19T02:48:33;23.90;34.50
33580;DHT22;19909;43.644;-79.438;2023-11-19T02:51:02;23.80;34.50
33580;DHT22;19909;43.644;-79.438;2023-11-19T02:53:30;23.80;34.60
33580;DHT22;19909;43.644;-79.438;2023-11-19T02:55:56;23.70;34.70
33580;DHT22;19909;43.644;-79.438;2023-11-19T02:58:35;23.70;34.80
33580;DHT22;19909;43.644;-79.438;2023-11-19T03:01:01;23.60;34.80
33580;DHT22;19909;43.644;-79.438;2023-11-19T03:03:39;23.60;34.80
33580;DHT22;19909;43.644;-79.438;2023-11-19T03:06:06;23.50;34.80
33580;DHT22;19909;43.644;-79.438;2023-11-19T03:08:35;23.50;34.80
33580;DHT22;19909;43.644;-79.438;2023-11-19T03:11:02;23.50;34.50
33580;DHT22;19909;43.644;-79.438;2023-11-19T03:13:28;23.50;34.40
33580;DHT22;19909;43.644;-79.438;2023-11-19T03:15:54;23.60;34.40
33580;DHT22;19909;43.644;-79.438;2023-11-19T03:18:21;23.70;34.30
33580;DHT22;19909;43.644;-79.438;2023-11-19T03:20:47;23.80;34.10
33580;DHT22;19909;43.644;-79.438;2023-11-19T03:23:13;24.00;34.20
33580;DHT22;19909;43.644;-79.438;2023-11-19T03:25:40;24.10;34.30
33580;DHT22;19909;43.644;-79.438;2023-11-19T03:28:06;24.20;34.40
33580;DHT22;19909;43.644;-79.438;2023-11-19T03:30:32;24.20;34.30
33580;DHT22;19909;43.644;-79.438;2023-11-19T03:32:59;24.20;34.20
33580;DHT22;19909;43.644;-79.438;2023-11-19T03:35:28;24.10;34.20
33580;DHT22;19909;43.644;-79.438;2023-11-19T03:37:54;24.00;34.20
33580;DHT22;19909;43.644;-79.438;2023-11-19T03:40:21;24.00;34.30
33580;DHT22;19909;43.644;-79.438;2023-11-19T03:42:48;23.90;34.40
33580;DHT22;19909;43.644;-79.438;2023-11-19T03:45:14;23.90;34.50
33580;DHT22;19909;43.644;-79.438;2023-11-19T03:47:41;23.90;34.70
33580;DHT22;19909;43.644;-79.438;2023-11-19T03:50:08;23.80;34.60
33580;DHT22;19909;43.644;-79.438;2023-11-19T03:52:35;23.70;34.60
33580;DHT22;19909;43.644;-79.438;2023-11-19T03:55:01;23.70;34.70
33580;DHT22;19909;43.644;-79.438;2023-11-19T03:57:29;23.70;34.80
33580;DHT22;19909;43.644;-79.438;2023-11-19T03:59:55;23.60;34.80
33580;DHT22;19909;43.644;-79.438;2023-11-19T04:02:21;23.60;34.90
33580;DHT22;19909;43.644;-79.438;2023-11-19T04:04:47;23.50;34.80
33580;DHT22;19909;43.644;-79.438;2023-11-19T04:07:14;23.50;34.90
33580;DHT22;19909;43.644;-79.438;2023-11-19T04:09:41;23.50;34.70
33580;DHT22;19909;43.644;-79.438;2023-11-19T04:12:07;23.50;34.50
33580;DHT22;19909;43.644;-79.438;2023-11-19T04:14:34;23.50;34.50
33580;DHT22;19909;43.644;-79.438;2023-11-19T04:17:00;23.60;34.30
33580;DHT22;19909;43.644;-79.438;2023-11-19T04:19:26;23.70;34.10
33580;DHT22;19909;43.644;-79.438;2023-11-19T04:21:52;23.80;34.00
33580;DHT22;19909;43.644;-79.438;2023-11-19T04:24:18;24.00;33.90
33580;DHT22;19909;43.644;-79.438;2023-11-19T04:26:45;24.10;34.10
33580;DHT22;19909;43.644;-79.438;2023-11-19T04:29:13;24.20;34.20
33580;DHT22;19909;43.644;-79.438;2023-11-19T04:31:40;24.30;34.10
33580;DHT22;19909;43.644;-79.438;2023-11-19T04:34:07;24.20;34.10
33580;DHT22;19909;43.644;-79.438;2023-11-19T04:36:33;24.20;34.10
33580;DHT22;19909;43.644;-79.438;2023-11-19T04:39:00;24.10;34.10
33580;DHT22;19909;43.644;-79.438;2023-11-19T04:41:27;24.10;34.20
33580;DHT22;19909;43.644;-79.438;2023-11-19T04:43:54;24.00;34.30
33580;DHT22;19909;43.644;-79.438;2023-11-19T04:46:21;24.00;34.40
33580;DHT22;19909;43.644;-79.438;2023-11-19T04:48:47;23.90;34.50
33580;DHT22;19909;43.644;-79.438;2023-11-19T04:51:13;23.80;34.50
33580;DHT22;19909;43.644;-79.438;2023-11-19T04:53:39;23.80;34.60
33580;DHT22;19909;43.644;-79.438;2023-11-19T04:56:09;23.70;34.70
33580;DHT22;19909;43.644;-79.438;2023-11-19T04:58:35;23.70;34.70
33580;DHT22;19909;43.644;-79.438;2023-11-19T05:01:03;23.60;34.70
33580;DHT22;19909;43.644;-79.438;2023-11-19T05:03:31;23.60;34.80
33580;DHT22;19909;43.644;-79.438;2023-11-19T05:05:58;23.60;34.80
33580;DHT22;19909;43.644;-79.438;2023-11-19T05:08:24;23.50;34.60
33580;DHT22;19909;43.644;-79.438;2023-11-19T05:10:50;23.50;34.30
33580;DHT22;19909;43.644;-79.438;2023-11-19T05:13:16;23.60;34.30
33580;DHT22;19909;43.644;-79.438;2023-11-19T05:15:42;23.60;34.20
33580;DHT22;19909;43.644;-79.438;2023-11-19T05:18:09;23.70;34.10
33580;DHT22;19909;43.644;-79.438;2023-11-19T05:20:35;23.80;33.90
33580;DHT22;19909;43.644;-79.438;2023-11-19T05:23:01;24.00;33.90
33580;DHT22;19909;43.644;-79.438;2023-11-19T05:25:27;24.20;34.00
33580;DHT22;19909;43.644;-79.438;2023-11-19T05:27:54;24.20;34.20
33580;DHT22;19909;43.644;-79.438;2023-11-19T05:30:20;24.20;34.10
33580;DHT22;19909;43.644;-79.438;2023-11-19T05:32:46;24.20;34.00
33580;DHT22;19909;43.644;-79.438;2023-11-19T05:35:13;24.20;34.10
33580;DHT22;19909;43.644;-79.438;2023-11-19T05:37:39;24.10;34.00
33580;DHT22;19909;43.644;-79.438;2023-11-19T05:40:06;24.00;34.10
33580;DHT22;19909;43.644;-79.438;2023-11-19T05:42:41;24.00;34.20
33580;DHT22;19909;43.644;-79.438;2023-11-19T05:45:08;23.90;34.30
33580;DHT22;19909;43.644;-79.438;2023-11-19T05:47:35;23.90;34.40
33580;DHT22;19909;43.644;-79.438;2023-11-19T05:50:01;23.80;34.40
33580;DHT22;19909;43.644;-79.438;2023-11-19T05:52:28;23.80;34.50
33580;DHT22;19909;43.644;-79.438;2023-11-19T05:57:26;23.70;34.70
33580;DHT22;19909;43.644;-79.438;2023-11-19T05:59:55;23.70;34.80
33580;DHT22;19909;43.644;-79.438;2023-11-19T06:02:21;23.60;35.30
33580;DHT22;19909;43.644;-79.438;2023-11-19T06:04:47;23.50;34.70
33580;DHT22;19909;43.644;-79.438;2023-11-19T06:07:14;23.50;34.50
33580;DHT22;19909;43.644;-79.438;2023-11-19T06:09:41;23.50;34.30
33580;DHT22;19909;43.644;-79.438;2023-11-19T06:12:08;23.50;34.10
33580;DHT22;19909;43.644;-79.438;2023-11-19T06:14:34;23.50;34.00
33580;DHT22;19909;43.644;-79.438;2023-11-19T06:17:00;23.60;33.90
33580;DHT22;19909;43.644;-79.438;2023-11-19T06:19:26;23.70;33.70
33580;DHT22;19909;43.644;-79.438;2023-11-19T06:21:52;23.90;33.70
33580;DHT22;19909;43.644;-79.438;2023-11-19T06:24:18;24.00;33.50
33580;DHT22;19909;43.644;-79.438;2023-11-19T06:26:45;24.20;33.70
33580;DHT22;19909;43.644;-79.438;2023-11-19T06:29:11;24.20;33.90
33580;DHT22;19909;43.644;-79.438;2023-11-19T06:31:40;24.30;33.80
33580;DHT22;19909;43.644;-79.438;2023-11-19T06:34:07;24.20;33.80
33580;DHT22;19909;43.644;-79.438;2023-11-19T06:36:33;24.20;33.90
33580;DHT22;19909;43.644;-79.438;2023-11-19T06:38:59;24.10;33.70
33580;DHT22;19909;43.644;-79.438;2023-11-19T06:41:26;24.10;33.90
33580;DHT22;19909;43.644;-79.438;2023-11-19T06:43:52;24.00;34.10
33580;DHT22;19909;43.644;-79.438;2023-11-19T06:46:19;24.00;34.20
33580;DHT22;19909;43.644;-79.438;2023-11-19T06:48:45;23.90;34.20
33580;DHT22;19909;43.644;-79.438;2023-11-19T06:51:12;23.80;34.30
33580;DHT22;19909;43.644;-79.438;2023-11-19T06:53:39;23.80;34.40
33580;DHT22;19909;43.644;-79.438;2023-11-19T06:56:18;23.70;34.40
33580;DHT22;19909;43.644;-79.438;2023-11-19T06:58:44;23.70;34.50
33580;DHT22;19909;43.644;-79.438;2023-11-19T07:01:10;23.70;34.60
33580;DHT22;19909;43.644;-79.438;2023-11-19T07:03:36;23.60;34.60
33580;DHT22;19909;43.644;-79.438;2023-11-19T07:06:03;23.60;34.50
33580;DHT22;19909;43.644;-79.438;2023-11-19T07:08:29;23.50;34.10
33580;DHT22;19909;43.644;-79.438;2023-11-19T07:10:55;23.50;33.90
33580;DHT22;19909;43.644;-79.438;2023-11-19T07:13:22;23.50;33.70
33580;DHT22;19909;43.644;-79.438;2023-11-19T07:15:48;23.60;33.60
33580;DHT22;19909;43.644;-79.438;2023-11-19T07:18:14;23.70;33.40
33580;DHT22;19909;43.644;-79.438;2023-11-19T07:20:41;23.80;33.40
33580;DHT22;19909;43.644;-79.438;2023-11-19T07:23:08;23.90;34.00
33580;DHT22;19909;43.644;-79.438;2023-11-19T07:25:34;24.10;33.70
33580;DHT22;19909;43.644;-79.438;2023-11-19T07:28:01;24.10;33.90
33580;DHT22;19909;43.644;-79.438;2023-11-19T07:30:30;24.20;34.00
33580;DHT22;19909;43.644;-79.438;2023-11-19T07:32:57;24.10;33.80
33580;DHT22;19909;43.644;-79.438;2023-11-19T07:35:23;24.10;33.80
33580;DHT22;19909;43.644;-79.438;2023-11-19T07:37:49;24.00;33.90
33580;DHT22;19909;43.644;-79.438;2023-11-19T07:40:16;24.00;34.00
33580;DHT22;19909;43.644;-79.438;2023-11-19T07:42:42;23.90;34.10
33580;DHT22;19909;43.644;-79.438;2023-11-19T07:45:08;23.90;34.20
33580;DHT22;19909;43.644;-79.438;2023-11-19T07:47:35;23.80;34.30
33580;DHT22;19909;43.644;-79.438;2023-11-19T07:50:01;23.80;34.40
33580;DHT22;19909;43.644;-79.438;2023-11-19T07:52:27;23.70;34.40
33580;DHT22;19909;43.644;-79.438;2023-11-19T07:54:54;23.70;34.50
33580;DHT22;19909;43.644;-79.438;2023-11-19T07:57:21;23.60;34.60
33580;DHT22;19909;43.644;-79.438;2023-11-19T07:59:49;23.60;34.60
33580;DHT22;19909;43.644;-79.438;2023-11-19T08:02:16;23.50;34.50
33580;DHT22;19909;43.644;-79.438;2023-11-19T08:04:42;23.50;34.60
33580;DHT22;19909;43.644;-79.438;2023-11-19T08:07:11;23.50;34.40
33580;DHT22;19909;43.644;-79.438;2023-11-19T08:09:37;23.40;34.10
33580;DHT22;19909;43.644;-79.438;2023-11-19T08:12:04;23.40;33.90
33580;DHT22;19909;43.644;-79.438;2023-11-19T08:14:30;23.50;33.90
33580;DHT22;19909;43.644;-79.438;2023-11-19T08:16:56;23.60;33.70
33580;DHT22;19909;43.644;-79.438;2023-11-19T08:19:23;23.70;33.60
33580;DHT22;19909;43.644;-79.438;2023-11-19T08:21:49;23.80;33.40
33580;DHT22;19909;43.644;-79.438;2023-11-19T08:24:15;24.00;33.40
33580;DHT22;19909;43.644;-79.438;2023-11-19T08:26:41;24.20;34.30
33580;DHT22;19909;43.644;-79.438;2023-11-19T08:29:08;24.20;33.90
33580;DHT22;19909;43.644;-79.438;2023-11-19T08:31:35;24.20;33.90
33580;DHT22;19909;43.644;-79.438;2023-11-19T08:34:01;24.20;33.80
33580;DHT22;19909;43.644;-79.438;2023-11-19T08:36:27;24.10;33.80
33580;DHT22;19909;43.644;-79.438;2023-11-19T08:38:54;24.10;34.40
33580;DHT22;19909;43.644;-79.438;2023-11-19T08:41:21;24.10;34.10
33580;DHT22;19909;43.644;-79.438;2023-11-19T08:43:47;24.00;34.10
33580;DHT22;19909;43.644;-79.438;2023-11-19T08:46:13;23.90;34.20
33580;DHT22;19909;43.644;-79.438;2023-11-19T08:48:40;23.80;34.20
33580;DHT22;19909;43.644;-79.438;2023-11-19T08:51:06;23.80;34.30
33580;DHT22;19909;43.644;-79.438;2023-11-19T08:53:32;23.70;34.40
33580;DHT22;19909;43.644;-79.438;2023-11-19T08:55:59;23.70;34.40
33580;DHT22;19909;43.644;-79.438;2023-11-19T08:58:26;23.70;34.40
33580;DHT22;19909;43.644;-79.438;2023-11-19T09:00:52;23.60;34.50
33580;DHT22;19909;43.644;-79.438;2023-11-19T09:03:18;23.60;34.50
33580;DHT22;19909;43.644;-79.438;2023-11-19T09:05:46;23.50;34.50
33580;DHT22;19909;43.644;-79.438;2023-11-19T09:08:12;23.50;34.10
33580;DHT22;19909;43.644;-79.438;2023-11-19T09:10:38;23.50;33.90
33580;DHT22;19909;43.644;-79.438;2023-11-19T09:13:04;23.50;33.90
33580;DHT22;19909;43.644;-79.438;2023-11-19T09:15:30;23.60;33.70
33580;DHT22;19909;43.644;-79.438;2023-11-19T09:17:56;23.70;33.60
33580;DHT22;19909;43.644;-79.438;2023-11-19T09:20:23;23.80;33.50
33580;DHT22;19909;43.644;-79.438;2023-11-19T09:22:49;23.90;33.40
33580;DHT22;19909;43.644;-79.438;2023-11-19T09:25:15;24.10;33.50
33580;DHT22;19909;43.644;-79.438;2023-11-19T09:27:43;24.20;33.80
33580;DHT22;19909;43.644;-79.438;2023-11-19T09:30:10;24.20;33.80
33580;DHT22;19909;43.644;-79.438;2023-11-19T09:32:36;24.20;33.80
33580;DHT22;19909;43.644;-79.438;2023-11-19T09:35:03;24.20;33.70
33580;DHT22;19909;43.644;-79.438;2023-11-19T09:37:30;24.10;33.70
33580;DHT22;19909;43.644;-79.438;2023-11-19T09:39:56;24.10;33.80
33580;DHT22;19909;43.644;-79.438;2023-11-19T09:42:24;24.00;34.00
33580;DHT22;19909;43.644;-79.438;2023-11-19T09:44:50;24.00;34.10
33580;DHT22;19909;43.644;-79.438;2023-11-19T09:47:17;23.90;34.20
33580;DHT22;19909;43.644;-79.438;2023-11-19T09:49:45;23.80;34.20
33580;DHT22;19909;43.644;-79.438;2023-11-19T09:52:13;23.80;34.30
33580;DHT22;19909;43.644;-79.438;2023-11-19T09:54:40;23.70;34.30
33580;DHT22;19909;43.644;-79.438;2023-11-19T09:57:07;23.70;34.40
33580;DHT22;19909;43.644;-79.438;2023-11-19T09:59:36;23.60;34.40
33580;DHT22;19909;43.644;-79.438;2023-11-19T10:02:03;23.60;34.50
33580;DHT22;19909;43.644;-79.438;2023-11-19T10:04:30;23.50;34.50
33580;DHT22;19909;43.644;-79.438;2023-11-19T10:06:57;23.50;34.30
33580;DHT22;19909;43.644;-79.438;2023-11-19T10:09:23;23.50;33.80
33580;DHT22;19909;43.644;-79.438;2023-11-19T10:11:50;23.50;33.80
33580;DHT22;19909;43.644;-79.438;2023-11-19T10:14:16;23.50;33.70
33580;DHT22;19909;43.644;-79.438;2023-11-19T10:16:45;23.70;33.60
33580;DHT22;19909;43.644;-79.438;2023-11-19T10:19:19;23.70;33.40
33580;DHT22;19909;43.644;-79.438;2023-11-19T10:21:46;23.90;33.30
33580;DHT22;19909;43.644;-79.438;2023-11-19T10:24:12;24.10;33.20
33580;DHT22;19909;43.644;-79.438;2023-11-19T10:26:40;24.20;33.70
33580;DHT22;19909;43.644;-79.438;2023-11-19T10:29:08;24.20;33.60
33580;DHT22;19909;43.644;-79.438;2023-11-19T10:31:34;24.30;33.60
33580;DHT22;19909;43.644;-79.438;2023-11-19T10:34:00;24.20;33.60
33580;DHT22;19909;43.644;-79.438;2023-11-19T10:36:47;24.20;33.60
33580;DHT22;19909;43.644;-79.438;2023-11-19T10:39:13;24.10;33.60
33580;DHT22;19909;43.644;-79.438;2023-11-19T10:41:39;24.10;33.80
33580;DHT22;19909;43.644;-79.438;2023-11-19T10:44:05;24.00;33.90
33580;DHT22;19909;43.644;-79.438;2023-11-19T10:46:42;24.00;34.00
33580;DHT22;19909;43.644;-79.438;2023-11-19T10:49:09;23.90;34.10
33580;DHT22;19909;43.644;-79.438;2023-11-19T10:51:36;23.80;34.10
33580;DHT22;19909;43.644;-79.438;2023-11-19T10:54:06;23.80;34.20
33580;DHT22;19909;43.644;-79.438;2023-11-19T10:56:33;23.70;34.30
33580;DHT22;19909;43.644;-79.438;2023-11-19T10:59:00;23.70;34.30
33580;DHT22;19909;43.644;-79.438;2023-11-19T11:01:39;23.60;34.30
33580;DHT22;19909;43.644;-79.438;2023-11-19T11:04:14;23.60;34.40
33580;DHT22;19909;43.644;-79.438;2023-11-19T11:06:42;23.50;34.20
33580;DHT22;19909;43.644;-79.438;2023-11-19T11:09:11;23.50;33.80
33580;DHT22;19909;43.644;-79.438;2023-11-19T11:11:40;23.50;33.80
33580;DHT22;19909;43.644;-79.438;2023-11-19T11:14:12;23.60;33.80
33580;DHT22;19909;43.644;-79.438;2023-11-19T11:16:46;23.70;33.50
33580;DHT22;19909;43.644;-79.438;2023-11-19T11:19:15;23.80;33.40
33580;DHT22;19909;43.644;-79.438;2023-11-19T11:21:47;23.90;33.20
33580;DHT22;19909;43.644;-79.438;2023-11-19T11:37:47;24.20;33.50
33580;DHT22;19909;43.644;-79.438;2023-11-19T11:40:16;24.10;33.60
33580;DHT22;19909;43.644;-79.438;2023-11-19T11:42:44;24.00;33.80
33580;DHT22;19909;43.644;-79.438;2023-11-19T11:45:15;24.00;33.90
33580;DHT22;19909;43.644;-79.438;2023-11-19T11:50:20;23.80;34.00
33580;DHT22;19909;43.644;-79.438;2023-11-19T11:55:28;23.80;34.10
33580;DHT22;19909;43.644;-79.438;2023-11-19T11:58:00;23.70;34.20
33580;DHT22;19909;43.644;-79.438;2023-11-19T12:00:29;23.60;34.30
33580;DHT22;19909;43.644;-79.438;2023-11-19T12:02:57;23.60;34.30
33580;DHT22;19909;43.644;-79.438;2023-11-19T12:05:25;23.60;34.20
33580;DHT22;19909;43.644;-79.438;2023-11-19T12:08:01;23.50;33.90
33580;DHT22;19909;43.644;-79.438;2023-11-19T12:10:32;23.50;33.70
33580;DHT22;19909;43.644;-79.438;2023-11-19T12:13:01;23.50;33.60
33580;DHT22;19909;43.644;-79.438;2023-11-19T12:15:28;23.60;33.50
33580;DHT22;19909;43.644;-79.438;2023-11-19T12:17:55;23.70;33.30
33580;DHT22;19909;43.644;-79.438;2023-11-19T12:20:25;23.80;33.20
33580;DHT22;19909;43.644;-79.438;2023-11-19T12:22:53;24.00;33.10
33580;DHT22;19909;43.644;-79.438;2023-11-19T12:25:20;24.20;33.20
33580;DHT22;19909;43.644;-79.438;2023-11-19T12:27:50;24.30;33.70
33580;DHT22;19909;43.644;-79.438;2023-11-19T12:30:26;24.30;33.40
33580;DHT22;19909;43.644;-79.438;2023-11-19T12:32:53;24.20;33.40
33580;DHT22;19909;43.644;-79.438;2023-11-19T12:35:20;24.20;33.40
33580;DHT22;19909;43.644;-79.438;2023-11-19T12:37:48;24.10;33.40
33580;DHT22;19909;43.644;-79.438;2023-11-19T12:40:22;24.10;33.60
33580;DHT22;19909;43.644;-79.438;2023-11-19T12:42:49;24.00;33.70
33580;DHT22;19909;43.644;-79.438;2023-11-19T12:45:16;24.00;33.90
33580;DHT22;19909;43.644;-79.438;2023-11-19T12:47:46;23.90;33.90
33580;DHT22;19909;43.644;-79.438;2023-11-19T12:50:16;23.80;34.00
33580;DHT22;19909;43.644;-79.438;2023-11-19T12:52:55;23.80;33.90
33580;DHT22;19909;43.644;-79.438;2023-11-19T12:55:29;23.70;34.10
33580;DHT22;19909;43.644;-79.438;2023-11-19T12:57:56;23.70;34.10
33580;DHT22;19909;43.644;-79.438;2023-11-19T13:00:25;23.60;34.20
33580;DHT22;19909;43.644;-79.438;2023-11-19T13:02:56;23.50;34.10
33580;DHT22;19909;43.644;-79.438;2023-11-19T13:05:32;23.50;34.20
33580;DHT22;19909;43.644;-79.438;2023-11-19T13:10:34;23.50;33.60
33580;DHT22;19909;43.644;-79.438;2023-11-19T13:13:24;23.50;33.50
33580;DHT22;19909;43.644;-79.438;2023-11-19T13:15:50;23.60;33.40
33580;DHT22;19909;43.644;-79.438;2023-11-19T13:18:17;23.70;33.20
33580;DHT22;19909;43.644;-79.438;2023-11-19T13:20:44;23.90;33.10
33580;DHT22;19909;43.644;-79.438;2023-11-19T13:23:10;24.00;33.00
33580;DHT22;19909;43.644;-79.438;2023-11-19T13:25:36;24.20;33.20
33580;DHT22;19909;43.644;-79.438;2023-11-19T13:28:03;24.20;33.50
33580;DHT22;19909;43.644;-79.438;2023-11-19T13:30:29;24.30;33.30
33580;DHT22;19909;43.644;-79.438;2023-11-19T13:32:55;24.30;33.40
33580;DHT22;19909;43.644;-79.438;2023-11-19T13:35:22;24.20;33.20
33580;DHT22;19909;43.644;-79.438;2023-11-19T13:37:48;24.20;33.30
33580;DHT22;19909;43.644;-79.438;2023-11-19T13:40:15;24.10;33.40
33580;DHT22;19909;43.644;-79.438;2023-11-19T13:42:42;24.00;33.60
33580;DHT22;19909;43.644;-79.438;2023-11-19T13:45:12;24.00;33.70
33580;DHT22;19909;43.644;-79.438;2023-11-19T13:47:43;23.90;33.80
33580;DHT22;19909;43.644;-79.438;2023-11-19T13:50:10;23.80;33.90
33580;DHT22;19909;43.644;-79.438;2023-11-19T13:52:37;23.80;33.90
33580;DHT22;19909;43.644;-79.438;2023-11-19T13:55:06;23.70;33.90
33580;DHT22;19909;43.644;-79.438;2023-11-19T13:57:34;23.70;34.10
33580;DHT22;19909;43.644;-79.438;2023-11-19T14:00:01;23.70;34.10
33580;DHT22;19909;43.644;-79.438;2023-11-19T14:02:30;23.60;34.20
33580;DHT22;19909;43.644;-79.438;2023-11-19T14:04:57;23.50;34.20
33580;DHT22;19909;43.644;-79.438;2023-11-19T14:07:23;23.50;33.80
33580;DHT22;19909;43.644;-79.438;2023-11-19T14:09:49;23.50;33.50
33580;DHT22;19909;43.644;-79.438;2023-11-19T14:12:16;23.50;33.50
33580;DHT22;19909;43.644;-79.438;2023-11-19T14:14:42;23.60;33.40
33580;DHT22;19909;43.644;-79.438;2023-11-19T14:17:08;23.70;33.20
33580;DHT22;19909;43.644;-79.438;2023-11-19T14:19:34;23.80;33.10
33580;DHT22;19909;43.644;-79.438;2023-11-19T14:22:00;24.00;33.10
33580;DHT22;19909;43.644;-79.438;2023-11-19T14:24:27;24.20;33.00
33580;DHT22;19909;43.644;-79.438;2023-11-19T14:26:53;24.20;33.30
33580;DHT22;19909;43.644;-79.438;2023-11-19T14:29:19;24.30;33.50
33580;DHT22;19909;43.644;-79.438;2023-11-19T14:31:46;24.30;33.40
33580;DHT22;19909;43.644;-79.438;2023-11-19T14:34:12;24.30;33.30
33580;DHT22;19909;43.644;-79.438;2023-11-19T14:36:38;24.20;33.30
33580;DHT22;19909;43.644;-79.438;2023-11-19T14:39:04;24.10;33.40
33580;DHT22;19909;43.644;-79.438;2023-11-19T14:41:32;24.10;33.60
33580;DHT22;19909;43.644;-79.438;2023-11-19T14:43:59;24.00;33.70
33580;DHT22;19909;43.644;-79.438;2023-11-19T14:46:25;23.90;34.30
33580;DHT22;19909;43.644;-79.438;2023-11-19T14:48:51;23.90;33.90
33580;DHT22;19909;43.644;-79.438;2023-11-19T14:51:17;23.80;33.90
33580;DHT22;19909;43.644;-79.438;2023-11-19T14:53:46;23.80;34.10
33580;DHT22;19909;43.644;-79.438;2023-11-19T14:56:13;23.70;34.10
33580;DHT22;19909;43.644;-79.438;2023-11-19T14:58:39;23.70;34.30
33580;DHT22;19909;43.644;-79.438;2023-11-19T15:01:06;23.70;34.10
33580;DHT22;19909;43.644;-79.438;2023-11-19T15:03:33;23.60;33.90
33580;DHT22;19909;43.644;-79.438;2023-11-19T15:05:59;23.60;33.70
33580;DHT22;19909;43.644;-79.438;2023-11-19T15:08:25;23.50;33.20
33580;DHT22;19909;43.644;-79.438;2023-11-19T15:10:52;23.50;32.90
33580;DHT22;19909;43.644;-79.438;2023-11-19T15:13:18;23.50;32.90
33580;DHT22;19909;43.644;-79.438;2023-11-19T15:15:45;23.60;32.90
33580;DHT22;19909;43.644;-79.438;2023-11-19T15:18:11;23.70;32.70
33580;DHT22;19909;43.644;-79.438;2023-11-19T15:20:37;23.80;32.70
33580;DHT22;19909;43.644;-79.438;2023-11-19T15:23:04;24.00;32.70
33580;DHT22;19909;43.644;-79.438;2023-11-19T15:25:30;24.10;32.60
33580;DHT22;19909;43.644;-79.438;2023-11-19T15:27:56;24.20;32.60